Tiempo atmosférico en la estación meteorológica de Arroyo Del Ojanco, Jaén (580 m.)



Fecha
DESCASC
Temp. máxima en grados centígrados (hora)
DESCASC
Temp. mínima en grados centígrados (hora)
DESCASC
Temp. media en grados centígrados
DESCASC
Racha de viento máxima en m/sg (hora)
DESCASC
Velocidad máxima media en intervalos de 10 minutos(hora)
DESCASC
Precipitaciones diarias en mm
DESCASC
Precipitaciones de 00:00 a 06:00 en mm
DESCASC
Precipitaciones de 06:00 a 12:00 en mm
DESCASC
Precipitaciones de 12:00 a 18:00 en mm
DESCASC
Precipitaciones de 18:00 a 24:00 en mm
DESCASC
21-02-2019 20.5 (17:20) 1.7 (08:00) 11.1 -- (--) -- (--) 0 0 0 0 0
20-02-2019 19 (16:00) 2.9 (08:30) 11 -- (--) -- (--) 0 0 0 0 0
19-02-2019 18.1 (17:20) 2.7 (08:00) 10.4 -- (--) -- (--) 0 0 0 0 0
18-02-2019 18.4 (16:10) 2.9 (07:00) 10.6 -- (--) -- (--) 0 0 0 0 0
17-02-2019 20.1 (17:10) 1.9 (00:00) 11 -- (--) -- (--) 0 0 0 0 0
16-02-2019 21.6 (14:40) 4.7 (00:00) 13.2 -- (--) -- (--) 0 0 0 0 0
15-02-2019 21.9 (16:50) 1.7 (00:00) 11.8 -- (--) -- (--) 0 0 0 0 0
14-02-2019 19.1 (17:30) 1.3 (00:00) 10.2 -- (--) -- (--) 0 0 0 0 0
13-02-2019 18.5 (16:50) 2.4 (00:00) 10.5 -- (--) -- (--) 0 0 0 0 0
12-02-2019 17.9 (16:50) 3.2 (00:00) 10.5 -- (--) -- (--) 0 0 0 0 0
11-02-2019 14.6 (14:00) 6.8 (00:00) 10.7 -- (--) -- (--) 0 0 0 0 0
10-02-2019 12 (16:50) 2 (00:00) 7 -- (--) -- (--) 0 0 0 0 0
09-02-2019 18.4 (16:00) 1.8 (00:00) 10.1 -- (--) -- (--) 0 0 0 0 0
08-02-2019 19.4 (16:50) 1.9 (00:00) 10.6 -- (--) -- (--) 0 0 0 0 0
07-02-2019 18.9 (16:00) 2.5 (00:00) 10.7 -- (--) -- (--) 0 0 0 0 0
06-02-2019 -- (--) -- (--) -- -- (--) -- (--) 0 0 0 0 0
05-02-2019 18.1 (14:50) 0.1 (00:00) 9.1 -- (--) -- (--) 0 0 0 0 0
04-02-2019 15.2 (16:50) -2.6 (-00:0) 6.3 -- (--) -- (--) 0 0 0 0 0
03-02-2019 9.2 (15:20) -1.2 (-00:0) 4 -- (--) -- (--) 0 0 0 0 0
02-02-2019 9.5 (14:50) 2.3 (00:00) 5.9 -- (--) -- (--) 0.1 0.1 0 0 0
01-02-2019 11.3 (05:40) 5.6 (00:00) 8.5 -- (--) -- (--) 25 13.9 9.1 1.9 0.1
31-01-2019 11.3 (11:40) 8.2 (00:00) 9.8 -- (--) -- (--) 8.6 3.3 3.3 1.2 0.8
30-01-2019 11.4 (12:30) 7.5 (00:00) 9.4 -- (--) -- (--) 2.6 0 0 0 2.6
29-01-2019 9.9 (20:30) 6.9 (00:00) 8.4 -- (--) -- (--) 0.4 0 0 0 0.4
28-01-2019 10.5 (15:30) 0.1 (00:00) 5.3 -- (--) -- (--) 0 0 0 0 0
27-01-2019 11.6 (16:10) 2.6 (00:00) 7.1 -- (--) -- (--) 0 0 0 0 0
26-01-2019 17.9 (15:30) 1.4 (00:00) 9.6 -- (--) -- (--) 0 0 0 0 0
25-01-2019 16.3 (15:30) 4.4 (00:00) 10.3 -- (--) -- (--) 0 0 0 0 0
24-01-2019 13.4 (14:30) 7.6 (00:00) 10.5 -- (--) -- (--) 0 0 0 0 0

Gráficas

Temp. máximas Temp. mínimas Temp. medias Precipitaciones Rachas de viento máximas Velocidades máximas media en intervalos de 10 minutos

Datos horarios

Fecha y hora oficial Temperatura (ºC) Velocidad del viento (km/h) Dirección del viento Racha (km/h) Dirección de racha Precipitación (mm) Presión (hPa) Tendencia (hPa) Humedad (%)
2019-02-22 23:00:00 9.1 -- -- -- -- 0 955 -0.1 40
2019-02-22 22:00:00 10.5 -- -- -- -- 0 955 -0.1 37
2019-02-22 21:00:00 12.3 -- -- -- -- 0 954.9 0.1 32
2019-02-22 20:00:00 15.1 -- -- -- -- 0 955.1 0.1 28
2019-02-22 19:00:00 17 -- -- -- -- 0 955.1 0.2 28
2019-02-22 18:00:00 20.4 -- -- -- -- 0 954.8 -0.1 26
2019-02-22 17:00:00 21.5 -- -- -- -- 0 955 -0.1 26
2019-02-22 16:00:00 21.2 -- -- -- -- 0 954.9 -0.6 28
2019-02-22 15:00:00 20.6 -- -- -- -- 0 954.9 -0.5 28
2019-02-22 14:00:00 19 -- -- -- -- 0 955.1 0 34
2019-02-22 13:00:00 16.7 -- -- -- -- 0 955.5 0.9 39
2019-02-22 12:00:00 14.1 -- -- -- -- 0 955.4 1.7 46
2019-02-22 11:00:00 10.7 -- -- -- -- 0 955.1 2 55
2019-02-22 10:00:00 8.1 -- -- -- -- 0 954.6 1.3 67
2019-02-22 09:00:00 3.7 -- -- -- -- 0 953.7 0.1 86
2019-02-22 08:00:00 2 -- -- -- -- 0 953.1 -0.6 89
2019-02-22 07:00:00 2.7 -- -- -- -- 0 953.3 -0.6 87
2019-02-22 06:00:00 2.9 -- -- -- -- 0 953.6 -0.6 85
2019-02-22 05:00:00 3.8 -- -- -- -- 0 953.7 -0.5 80
2019-02-22 04:00:00 4.3 -- -- -- -- 0 953.9 -0.4 76
2019-02-22 03:00:00 4.8 -- -- -- -- 0 954.2 0.1 75
2019-02-22 02:00:00 5.5 -- -- -- -- 0 954.2 -0.4 70
2019-02-22 01:00:00 6.7 -- -- -- -- 0 954.3 0 65
2019-02-22 00:00:00 7.6 -- -- -- -- 0 954.1 0.6 59
2019-02-21 23:00:00 9.1 -- -- -- -- 0 954.6 1.7 52
2019-02-21 22:00:00 9.5 -- -- -- -- 0 954.3 1.4 46
2019-02-21 21:00:00 11.2 -- -- -- -- 0 953.5 0.6 40
2019-02-21 20:00:00 12.1 -- -- -- -- 0 952.9 0 37
2019-02-21 19:00:00 15.1 -- -- -- -- 0 952.9 0.3 31
2019-02-21 18:00:00 19 -- -- -- -- 0 952.9 0.7 26
2019-02-21 17:00:00 20.2 -- -- -- -- 0 952.9 0.4 25
2019-02-21 16:00:00 19.4 -- -- -- -- 0 952.6 0.4 25
2019-02-21 15:00:00 18.9 -- -- -- -- 0 952.2 0.3 29
2019-02-21 14:00:00 17 -- -- -- -- 0 952.5 1.3 35
2019-02-21 13:00:00 14.9 -- -- -- -- 0 952.2 2.4 41
2019-02-21 12:00:00 12.4 -- -- -- -- 0 951.9 2.7 50
2019-02-21 11:00:00 10.1 -- -- -- -- 0 951.2 2.7 56
2019-02-21 10:00:00 6.9 -- -- -- -- 0 949.8 1.6 76
2019-02-21 09:00:00 3.4 -- -- -- -- 0 949.2 0.9 86
2019-02-21 08:00:00 1.7 -- -- -- -- 0 948.5 0.1 87
2019-02-21 07:00:00 2.5 -- -- -- -- 0 948.2 -0.7 85
2019-02-21 06:00:00 2.9 -- -- -- -- 0 948.3 -0.7 84
2019-02-21 05:00:00 3.5 -- -- -- -- 0 948.4 -0.8 79
2019-02-21 04:00:00 4.5 -- -- -- -- 0 948.9 -0.5 73
2019-02-21 03:00:00 5.6 -- -- -- -- 0 949 -0.4 68
2019-02-21 02:00:00 6 -- -- -- -- 0 949.2 -0.2 65
2019-02-21 01:00:00 7.3 -- -- -- -- 0 949.4 0.7 59
2019-02-21 00:00:00 9.3 -- -- -- -- 0 949.4 1.3 53
2019-02-20 23:00:00 12.2 -- -- -- -- 0 949.4 1.4 44
2019-02-20 22:00:00 11.4 -- -- -- -- 0 948.7 0.8 49
2019-02-20 21:00:00 10.8 -- -- -- -- 0 948.1 0.2 52
2019-02-20 20:00:00 11.7 -- -- -- -- 0 948 0.3 48
2019-02-20 19:00:00 13.8 -- -- -- -- 0 947.9 0 41
2019-02-20 18:00:00 17.7 -- -- -- -- 0 947.9 -0.2 34
2019-02-20 17:00:00 19 -- -- -- -- 0 947.7 -0.5 35
2019-02-20 16:00:00 18.7 -- -- -- -- 0 947.9 -0.7 34
2019-02-20 15:00:00 17.3 -- -- -- -- 0 948.1 -0.3 39
2019-02-20 14:00:00 16.6 -- -- -- -- 0 948.2 0.4 46
2019-02-20 13:00:00 14.9 -- -- -- -- 0 948.6 2.2 52
2019-02-20 12:00:00 12.6 -- -- -- -- 0 948.4 3 59
2019-02-20 11:00:00 9.9 -- -- -- -- 0 947.8 2.9 70
2019-02-20 10:00:00 6.6 -- -- -- -- 0 946.4 2 86
2019-02-20 09:00:00 3.8 -- -- -- -- 0 945.4 1.3 98
2019-02-20 08:00:00 3.1 -- -- -- -- 0 944.9 0.8 97
2019-02-20 07:00:00 3.5 -- -- -- -- 0 944.4 0 98
2019-02-20 06:00:00 3.6 -- -- -- -- 0 944.1 -0.7 97
2019-02-20 05:00:00 4.2 -- -- -- -- 0 944.1 -0.6 95
2019-02-20 04:00:00 4.9 -- -- -- -- 0 944.4 -0.4 91
2019-02-20 03:00:00 5 -- -- -- -- 0 944.8 -0.1 91
2019-02-20 02:00:00 5.5 -- -- -- -- 0 944.7 -0.3 88
2019-02-20 01:00:00 6 -- -- -- -- 0 944.8 0.1 83
2019-02-20 00:00:00 6.9 -- -- -- -- 0 944.9 0.4 76
2019-02-19 23:00:00 8.1 -- -- -- -- 0 945 0.3 70
2019-02-19 22:00:00 9.6 -- -- -- -- 0 944.7 0.6 64
2019-02-19 21:00:00 10.5 -- -- -- -- 0 944.5 0.9 58
2019-02-19 20:00:00 12.8 -- -- -- -- 0 944.7 1.2 49
2019-02-19 19:00:00 13.2 -- -- -- -- 0 944.1 0.4 47
2019-02-19 18:00:00 16.3 -- -- -- -- 0 943.6 -0.3 40
2019-02-19 17:00:00 17.6 -- -- -- -- 0 943.5 -1.1 37
2019-02-19 16:00:00 16.7 -- -- -- -- 0 943.7 -1.4 39
2019-02-19 15:00:00 15.6 -- -- -- -- 0 943.9 -1.4 43
2019-02-19 14:00:00 15.1 -- -- -- -- 0 944.6 -0.2 46
2019-02-19 13:00:00 14.4 -- -- -- -- 0 945.1 1.3 49
2019-02-19 12:00:00 12.7 -- -- -- -- 0 945.3 2.4 55
2019-02-19 11:00:00 9.9 -- -- -- -- 0 944.8 2.2 69
2019-02-19 10:00:00 6 -- -- -- -- 0 943.8 1.2 91
2019-02-19 09:00:00 3.7 -- -- -- -- 0 942.9 0.2 99
2019-02-19 08:00:00 2.7 -- -- -- -- 0 942.6 -0.1 99
2019-02-19 07:00:00 3.2 -- -- -- -- 0 942.6 0 98
2019-02-19 06:00:00 4 -- -- -- -- 0 942.7 -0.1 96
2019-02-19 05:00:00 4.4 -- -- -- -- 0 942.7 -0.2 93
2019-02-19 04:00:00 4.8 -- -- -- -- 0 942.6 0 91
2019-02-19 03:00:00 6.5 -- -- -- -- 0 942.8 0.2 83
2019-02-19 02:00:00 7 -- -- -- -- 0 942.9 -0.5 75
2019-02-19 01:00:00 7.4 -- -- -- -- 0 942.6 -0.4 75
2019-02-19 00:00:00 7.6 -- -- -- -- 0 942.6 0.3 69
2019-02-18 23:00:00 9.1 -- -- -- -- 0 943.4 1.1 61
2019-02-18 22:00:00 11 -- -- -- -- 0 943 0.9 57
2019-02-18 21:00:00 11.4 -- -- -- -- 0 942.3 0.6 54
2019-02-18 20:00:00 13.7 -- -- -- -- 0 942.3 0.5 44
2019-02-18 19:00:00 14.7 -- -- -- -- 0 942.1 0.2 42
2019-02-18 18:00:00 15.9 -- -- -- -- 0 941.7 -0.4 42
2019-02-18 17:00:00 17.2 -- -- -- -- 0 941.8 -0.9 37
2019-02-18 16:00:00 17.9 -- -- -- -- 0 941.9 -1 37
2019-02-18 15:00:00 17.1 -- -- -- -- 0 942.1 -0.8 40
2019-02-18 14:00:00 15.7 -- -- -- -- 0 942.7 0.4 42
2019-02-18 13:00:00 13.8 -- -- -- -- 0 942.9 1.1 47
2019-02-18 12:00:00 11.1 -- -- -- -- 0 942.9 1.8 59
2019-02-18 11:00:00 9.2 0 Calma 8 Oeste 0 942.3 1.6 70
2019-02-18 10:00:00 7.2 0 Calma -- -- 0 941.8 1 80
2019-02-18 09:00:00 4.8 0 Calma -- -- 0 941.1 -0.1 91
2019-02-18 08:00:00 3.3 0 Calma -- -- 0 940.7 -0.6 94
2019-02-18 07:00:00 3 0 Calma -- -- 0 940.8 -1.3 91
2019-02-18 06:00:00 4.1 0 Calma -- -- 0 941.2 -1.2 88
2019-02-18 05:00:00 4.1 0 Calma -- -- 0 941.3 -2.1 87
2019-02-18 04:00:00 5 0 Calma 6 Sur 0 942.1 -1.9 84
2019-02-18 03:00:00 5.7 0 Calma -- -- 0 942.4 -2.2 82
2019-02-18 02:00:00 6.6 0 Calma 2 Este 0 943.4 -1.7 76
2019-02-18 01:00:00 6.8 0 Calma -- -- 0 944 -1.1 70
2019-02-18 00:00:00 7.8 0 Calma 5 Nordeste 0 944.6 -0.5 64
2019-02-17 23:00:00 8.6 0 Calma 7 Sur 0 945.1 0.1 59
2019-02-17 22:00:00 9 2 Sur 9 Sur 0 945.1 0 55
2019-02-17 21:00:00 10.6 0 Calma -- -- 0 945.1 -0.4 44
2019-02-17 20:00:00 12 0 Calma 5 Este 0 945 -0.8 39
2019-02-17 19:00:00 15 0 Calma 10 Sur 0 945.1 -1.3 33
2019-02-17 18:00:00 18.8 0 Calma 13 Sudoeste 0 945.5 -1.3 29
2019-02-17 17:00:00 19.3 2 Sudoeste 17 Oeste 0 945.8 -1.4 30
2019-02-17 16:00:00 19.1 7 Oeste 18 Oeste 0 946.4 -1.6 29
2019-02-17 15:00:00 19.3 0 Calma 15 Sudoeste 0 946.8 -1.4 31
2019-02-17 14:00:00 17.4 0 Calma 10 Oeste 0 947.2 -0.4 34
2019-02-17 13:00:00 15.3 0 Calma 13 Sudoeste 0 948 1.8 37
2019-02-17 12:00:00 13 0 Calma 12 Sudoeste 0 948.2 2.3 44
2019-02-17 11:00:00 10.4 0 Calma 9 Nordeste 0 947.6 1.9 52
2019-02-17 10:00:00 7.9 0 Calma 0 Calma 0 946.2 0.4 57
2019-02-17 09:00:00 3.1 0 Calma 12 Nordeste 0 945.9 -0.1 70
2019-02-17 08:00:00 2.5 0 Calma -- -- 0 945.7 -0.2 70
2019-02-17 07:00:00 3.4 0 Calma -- -- 0 945.8 -0.8 65
2019-02-17 06:00:00 3.2 0 Calma -- -- 0 946 -0.9 61
2019-02-17 05:00:00 4.4 0 Calma 6 Sudoeste 0 945.9 -1.8 52
2019-02-17 04:00:00 4.9 0 Calma 6 Sur 0 946.6 -1.4 46
2019-02-17 03:00:00 5.8 0 Calma 6 Sur 0 946.9 -2 45
2019-02-17 02:00:00 6.8 0 Calma 9 Sur 0 947.7 -1.2 45
2019-02-17 01:00:00 7.6 0 Calma 10 Sudeste 0 948 -0.7 46
2019-02-17 00:00:00 9.2 0 Calma 20 Nordeste 0 948.9 0.7 40
2019-02-16 23:00:00 13 4 Nordeste 23 Este 0 948.9 0.8 34
2019-02-16 22:00:00 13.6 18 Este 30 Nordeste 0 948.7 0.7 36
2019-02-16 21:00:00 14 17 Este 30 Este 0 948.2 0.2 37
2019-02-16 20:00:00 13.8 15 Este 25 Este 0 948.1 0.1 40
2019-02-16 19:00:00 16 10 Este 24 Este 0 948 -0.2 32
2019-02-16 18:00:00 18.5 5 Este 26 Sur 0 948 -0.6 27
2019-02-16 17:00:00 20.2 12 Sur 30 Sudeste 0 948 -1.1 25
2019-02-16 16:00:00 20.6 7 Este 27 Sudeste 0 948.2 -1.2 25
2019-02-16 15:00:00 20.9 5 Sudeste 25 Sudeste 0 948.6 -1 25
2019-02-16 14:00:00 20.9 0 Calma 22 Nordeste 0 949.1 0.1 29
2019-02-16 13:00:00 18.4 0 Calma 7 Norte 0 949.4 1.3 39
2019-02-16 12:00:00 15.5 0 Calma 6 Oeste 0 949.6 2.3 46
2019-02-16 11:00:00 12.6 0 Calma 3 Oeste 0 949 2.5 56
2019-02-16 10:00:00 10.2 0 Calma 3 Noroeste 0 948.1 1.8 68
2019-02-16 09:00:00 5.3 0 Calma 4 Norte 0 947.3 0.7 85
2019-02-16 08:00:00 5.5 0 Calma 0 Calma 0 946.5 0.1 79
2019-02-16 07:00:00 5.2 0 Calma 5 Nordeste 0 946.3 -0.7 75
2019-02-16 06:00:00 7.1 0 Calma 8 Sudeste 0 946.6 -1 67
2019-02-16 05:00:00 7.7 0 Calma 7 Sur 0 946.4 -1.4 62
2019-02-16 04:00:00 8.6 0 Calma 23 Nordeste 0 947 -1.3 58
2019-02-16 03:00:00 10.4 6 Nordeste 14 Nordeste 0 947.6 -0.7 55
2019-02-16 02:00:00 9 0 Calma 7 Nordeste 0 947.8 -0.8 58
2019-02-16 01:00:00 10.1 0 Calma 17 Nordeste 0 948.3 -0.5 55
2019-02-16 00:00:00 11.4 4 Nordeste 18 Este 0 948.3 0.1 54
2019-02-15 23:00:00 11 0 Calma 13 Nordeste 0 948.6 0.2 58
2019-02-15 22:00:00 12.5 6 Nordeste 10 Sudeste 0 948.8 0 56
2019-02-15 21:00:00 12.2 0 Calma -- -- 0 948.2 -0.5 61
2019-02-15 20:00:00 13.2 0 Calma -- -- 0 948.4 -0.6 55
2019-02-15 19:00:00 15.9 0 Calma 5 Norte 0 948.8 -0.4 44
2019-02-15 18:00:00 20.5 0 Calma 8 Oeste 0 948.7 -0.9 35
2019-02-15 17:00:00 21.3 0 Calma 8 Oeste 0 949 -1.3 32
2019-02-15 16:00:00 20.7 0 Calma 10 Noroeste 0 949.2 -1.7 32
2019-02-15 15:00:00 19.3 0 Calma 12 Sudoeste 0 949.6 -1.6 36
2019-02-15 14:00:00 17.2 2 Noroeste 11 Sudoeste 0 950.3 -0.4 41
2019-02-15 13:00:00 15.1 0 Calma 9 Sudoeste 0 950.9 0.9 49
2019-02-15 12:00:00 12.4 0 Calma 5 Sur 0 951.2 2 58
2019-02-15 11:00:00 9.1 0 Calma -- -- 0 950.7 1.6 71
2019-02-15 10:00:00 6.2 0 Calma 8 Nordeste 0 950 0.7 89
2019-02-15 09:00:00 3.1 0 Calma 5 Nordeste 0 949.2 -0.7 99
2019-02-15 08:00:00 2 0 Calma 8 Nordeste 0 949.1 -0.7 99
2019-02-15 07:00:00 2.3 0 Calma -- -- 0 949.3 -0.7 99
2019-02-15 06:00:00 2.9 0 Calma -- -- 0 949.9 -0.5 98
2019-02-15 05:00:00 3.5 0 Calma -- -- 0 949.8 -1.2 96
2019-02-15 04:00:00 4.2 0 Calma -- -- 0 950 -1.2 94
2019-02-15 03:00:00 4.8 0 Calma -- -- 0 950.4 -1.2 90
2019-02-15 02:00:00 5.5 0 Calma -- -- 0 951 -0.4 84
2019-02-15 01:00:00 6.2 0 Calma -- -- 0 951.2 -0.6 80
2019-02-15 00:00:00 7.1 0 Calma -- -- 0 951.6 -0.3 74
2019-02-14 23:00:00 7.5 0 Calma -- -- 0 951.4 -1 70
2019-02-14 22:00:00 8.8 0 Calma -- -- 0 951.8 -0.6 59
2019-02-14 21:00:00 10.8 0 Calma -- -- 0 951.9 -0.6 49
2019-02-14 20:00:00 12.2 0 Calma 11 Sudeste 0 952.4 -0.2 44
2019-02-14 19:00:00 15.1 0 Calma 9 Sur 0 952.4 -0.6 38
2019-02-14 18:00:00 18.3 0 Calma 7 Oeste 0 952.5 -0.7 34
2019-02-14 17:00:00 18.6 0 Calma 11 Sudoeste 0 952.6 -0.8 34
2019-02-14 16:00:00 18.1 0 Calma 10 Oeste 0 953 -0.8 35
2019-02-14 15:00:00 16.9 0 Calma 15 Oeste 0 953.2 -0.8 38
2019-02-14 14:00:00 15.4 3 Sudoeste 20 Oeste 0 953.4 -0.1 45
2019-02-14 13:00:00 12.7 5 Sudoeste 18 Oeste 0 953.8 1.6 52
2019-02-14 12:00:00 10.7 2 Sudoeste 10 Sudoeste 0 954 2.1 62
2019-02-14 11:00:00 8.1 0 Calma 7 Sudoeste 0 953.5 2.1 73
2019-02-14 10:00:00 5.5 0 Calma -- -- 0 952.2 0.5 85
2019-02-14 09:00:00 2.4 0 Calma -- -- 0 951.9 0.2 96
2019-02-14 08:00:00 1.6 0 Calma -- -- 0 951.4 -0.2 95
2019-02-14 07:00:00 2.5 0 Calma -- -- 0 951.7 -0.1 93
2019-02-14 06:00:00 3.2 0 Calma -- -- 0 951.7 -0.2 91
2019-02-14 05:00:00 3.6 0 Calma -- -- 0 951.6 -0.3 90
2019-02-14 04:00:00 4.4 0 Calma 0 Calma 0 951.8 -1 84
2019-02-14 03:00:00 5.2 0 Calma -- -- 0 951.9 -0.7 79
2019-02-14 02:00:00 6.3 0 Calma -- -- 0 951.9 -0.7 73
2019-02-14 01:00:00 7.5 0 Calma 10 Sudoeste 0 952.8 0.3 65
2019-02-14 00:00:00 7.6 0 Calma 0 Calma 0 952.6 0.3 64
2019-02-13 23:00:00 9 0 Calma -- -- 0 952.6 0.5 61
2019-02-13 22:00:00 9.7 0 Calma -- -- 0 952.5 0.2 59
2019-02-13 21:00:00 10.2 0 Calma -- -- 0 952.3 0 55
2019-02-13 20:00:00 11.6 0 Calma 3 Norte 0 952.1 -0.3 49
2019-02-13 19:00:00 14.5 0 Calma 9 Sudoeste 0 952.3 -0.3 43
2019-02-13 18:00:00 17.4 0 Calma 17 Oeste 0 952.3 -0.3 38
2019-02-13 17:00:00 17.9 5 Oeste 18 Oeste 0 952.4 -0.7 38
2019-02-13 16:00:00 18 7 Sudoeste 14 Sudoeste 0 952.6 -0.8 41
2019-02-13 15:00:00 17.4 0 Calma 13 Sudoeste 0 952.6 -1 40
2019-02-13 14:00:00 16 0 Calma 10 Oeste 0 953.1 0.5 47
2019-02-13 13:00:00 13.8 0 Calma 8 Noroeste 0 953.4 1.3 54
2019-02-13 12:00:00 11 0 Calma 6 Norte 0 953.6 1.8 64
2019-02-13 11:00:00 8.9 0 Calma 3 Nordeste 0 952.6 1.4 81
2019-02-13 10:00:00 5.6 0 Calma 0 Calma 0 952.1 0.9 99
2019-02-13 09:00:00 2.9 0 Calma -- -- 0 951.8 0.3 99
2019-02-13 08:00:00 2.7 0 Calma -- -- 0 951.2 -0.4 99
2019-02-13 07:00:00 2.8 0 Calma -- -- 0 951.2 -0.8 99
2019-02-13 06:00:00 3.3 0 Calma -- -- 0 951.5 -1.1 99
2019-02-13 05:00:00 4.2 0 Calma -- -- 0 951.6 -1.1 98
2019-02-13 04:00:00 5 0 Calma -- -- 0 952 -1.2 97
2019-02-13 03:00:00 5.5 0 Calma -- -- 0 952.6 -0.7 95
2019-02-13 02:00:00 5.8 0 Calma -- -- 0 952.7 -1 92
2019-02-13 01:00:00 7 0 Calma 4 Nordeste 0 953.2 -0.6 88
2019-02-13 00:00:00 7.2 0 Calma -- -- 0 953.3 -0.4 87
2019-02-12 23:00:00 7.9 0 Calma -- -- 0 953.7 0 82
2019-02-12 22:00:00 9.3 0 Calma -- -- 0 953.8 0.2 76
2019-02-12 21:00:00 10.6 0 Calma -- -- 0 953.7 -0.1 69
2019-02-12 20:00:00 11.6 0 Calma 8 Sur 0 953.7 -0.1 62
2019-02-12 19:00:00 14.1 3 Sur 8 Sur 0 953.6 -0.1 53
2019-02-12 18:00:00 17 0 Calma 11 Oeste 0 953.8 -0.1 45
2019-02-12 17:00:00 17.5 5 Oeste 15 Oeste 0 953.8 -0.2 44
2019-02-12 16:00:00 17.3 3 Oeste 12 Oeste 0 953.7 -0.4 45
2019-02-12 15:00:00 16.7 0 Calma 13 Oeste 0 953.9 -0.3 46
2019-02-12 14:00:00 16 0 Calma 9 Sudoeste 0 954 0.5 51
2019-02-12 13:00:00 14.7 0 Calma 10 Oeste 0 954.1 1.7 57
2019-02-12 12:00:00 11.5 0 Calma 6 Noroeste 0 954.2 2.7 70
2019-02-12 11:00:00 7.8 0 Calma -- -- 0 953.5 2.6 97
2019-02-12 10:00:00 5.4 0 Calma -- -- 0 952.4 2 99
2019-02-12 09:00:00 4 0 Calma -- -- 0 951.5 1.3 99
2019-02-12 08:00:00 3.3 0 Calma -- -- 0 950.9 0.5 99
2019-02-12 07:00:00 3.5 0 Calma -- -- 0 950.4 -0.4 99
2019-02-12 06:00:00 4.2 0 Calma -- -- 0 950.2 -0.7 99
2019-02-12 05:00:00 4.3 0 Calma 6 Nordeste 0 950.4 -0.6 99
2019-02-12 04:00:00 4.4 0 Calma 4 Norte 0 950.8 -0.3 99
2019-02-12 03:00:00 5.2 0 Calma -- -- 0 950.9 -0.5 97
2019-02-12 02:00:00 5.6 0 Calma 13 Nordeste 0 951 0 94
2019-02-12 01:00:00 6.3 2 Nordeste 11 Nordeste 0 951.1 -0.1 95
2019-02-12 00:00:00 7.1 3 Nordeste 13 Nordeste 0 951.4 0.7 89
2019-02-11 23:00:00 6.9 4 Nordeste 12 Este 0 951 -0.2 89
2019-02-11 22:00:00 8.6 8 Este 16 Este 0 951.2 0.5 85
2019-02-11 21:00:00 9.2 0 Calma 0 Calma 0 950.7 -0.1 76
2019-02-11 20:00:00 10.3 0 Calma 8 Este 0 951.2 0.2 70
2019-02-11 19:00:00 11.6 4 Este 12 Nordeste 0 950.7 -0.5 64
2019-02-11 18:00:00 14.3 4 Norte 13 Nordeste 0 950.8 -0.5 61
2019-02-11 17:00:00 14.2 7 Nordeste 17 Nordeste 0 951 -0.7 62
2019-02-11 16:00:00 13.3 10 Nordeste 15 Nordeste 0 951.2 -0.8 66
2019-02-11 15:00:00 13.7 2 Norte 10 Norte 0 951.3 -0.7 63
2019-02-11 14:00:00 14.4 2 Noroeste 13 Noroeste 0 951.7 0 61
2019-02-11 13:00:00 13.2 0 Calma 11 Noroeste 0 952 0.6 73
2019-02-11 12:00:00 11.5 4 Oeste 13 Sudoeste 0 952 1.3 85
2019-02-11 11:00:00 10.5 8 Sudoeste 12 Sudoeste 0 951.7 1.8 93
2019-02-11 10:00:00 9.3 0 Calma 11 Sudoeste 0 951.4 1.7 94
2019-02-11 09:00:00 9.1 4 Sudoeste -- -- -- 950.7 0.8 94
2019-02-11 08:00:00 8.8 0 Calma 10 Oeste 0 949.9 0 93
2019-02-11 07:00:00 9.7 7 Sudoeste 14 Sudoeste 0 949.7 -0.3 89
2019-02-11 06:00:00 9.3 8 Sur 12 Sur 0 949.9 -0.4 88
2019-02-11 05:00:00 8.9 2 Sudeste 9 Sudeste 0 949.9 -0.4 87
2019-02-11 04:00:00 9.7 0 Calma 8 Sur 0 950 -0.5 81
2019-02-11 03:00:00 9.3 0 Calma 9 Sudoeste 0 950.3 -0.3 79
2019-02-11 02:00:00 9.7 0 Calma 9 Sur 0 950.3 -0.3 77
2019-02-11 01:00:00 9.5 2 Sur 10 Sur 0 950.5 -0.2 79
2019-02-11 00:00:00 9.9 0 Calma 10 Sudoeste 0 950.6 -0.1 77
2019-02-10 23:00:00 9.7 0 Calma 9 Sur 0 950.6 0.2 76
2019-02-10 22:00:00 9.8 0 Calma 12 Sudoeste 0 950.7 0.5 76
2019-02-10 21:00:00 9.6 2 Sudoeste 9 Sudoeste 0 950.7 0.8 77
2019-02-10 20:00:00 9.8 0 Calma 10 Sudoeste 0 950.4 0.5 76
2019-02-10 19:00:00 10.2 0 Calma 13 Sudoeste 0 950.2 0.1 73
2019-02-10 18:00:00 10.8 4 Sudoeste 17 Oeste 0 949.9 -0.3 70
2019-02-10 17:00:00 11.8 8 Oeste 21 Sudoeste 0 949.9 -0.3 68
2019-02-10 16:00:00 10.7 8 Sudoeste 19 Sudoeste 0 950.1 -0.5 71
2019-02-10 15:00:00 9 12 Sudoeste 19 Sudoeste 0 950.2 0 82
2019-02-10 14:00:00 9 8 Sudoeste 14 Sudoeste 0 950.2 0.2 86
2019-02-10 13:00:00 8.5 4 Oeste -- -- -- 950.6 1.7 91
2019-02-10 12:00:00 7.7 0 Calma 12 Sudoeste 0 950.2 2.4 93
2019-02-10 11:00:00 6.7 0 Calma 5 Sur 0 950 2.9 99
2019-02-10 10:00:00 4.3 0 Calma 0 Calma 0 948.9 2.6 99
2019-02-10 09:00:00 3 0 Calma 8 Sur 0 947.8 2.1 99
2019-02-10 08:00:00 2.4 0 Calma -- -- 0 947.1 1.5 99
2019-02-10 07:00:00 2.2 0 Calma -- -- 0 946.3 0.3 99
2019-02-10 06:00:00 2.9 0 Calma 6 Nordeste 0 945.7 -0.7 98
2019-02-10 05:00:00 2.8 0 Calma 4 Sur 0 945.6 -1 97
2019-02-10 04:00:00 3.6 0 Calma -- -- 0 946 -1.3 93
2019-02-10 03:00:00 4.1 0 Calma -- -- 0 946.4 -1 91
2019-02-10 02:00:00 4.6 0 Calma -- -- 0 946.6 -0.8 86
2019-02-10 01:00:00 5.5 0 Calma -- -- 0 947.3 -0.2 79
2019-02-10 00:00:00 6.1 0 Calma -- -- 0 947.4 -0.3 74
2019-02-09 23:00:00 7.5 0 Calma -- -- 0 947.4 -0.3 64
2019-02-09 22:00:00 8.7 0 Calma -- -- 0 947.5 0.3 56
2019-02-09 21:00:00 9.5 0 Calma 8 Sur 0 947.7 0.2 45
2019-02-09 20:00:00 12.8 2 Sur 14 Sudoeste 0 947.7 0 37
2019-02-09 19:00:00 13.2 6 Sur 18 Sur 0 947.2 -0.7 34
2019-02-09 18:00:00 15.8 5 Sudoeste 15 Sudoeste 0 947.5 -0.3 32
2019-02-09 17:00:00 17.6 5 Oeste 19 Sudoeste 0 947.7 -0.4 32
2019-02-09 16:00:00 18.4 0 Calma 14 Sudoeste 0 947.9 -1 31
2019-02-09 15:00:00 16.9 4 Sudoeste 14 Oeste 0 947.8 -0.7 36
2019-02-09 14:00:00 16.1 0 Calma 10 Oeste 0 948.1 0.6 43
2019-02-09 13:00:00 13.9 0 Calma 6 Oeste 0 948.9 2 51
2019-02-09 12:00:00 11.4 0 Calma 6 Norte 0 948.5 2.4 60
2019-02-09 11:00:00 8.1 0 Calma 9 Nordeste 0 947.5 1.9 75
2019-02-09 10:00:00 5.3 0 Calma 0 Calma 0 946.9 1.2 98
2019-02-09 09:00:00 2.3 0 Calma 9 Nordeste 0 946.1 0.4 99
2019-02-09 08:00:00 1.9 0 Calma 6 Nordeste 0 945.6 0.2 99
2019-02-09 07:00:00 2 0 Calma 0 Calma 0 945.7 0.1 99
2019-02-09 06:00:00 2.9 0 Calma 8 Nordeste 0 945.7 -0.8 97
2019-02-09 05:00:00 3.3 0 Calma -- -- 0 945.4 -1.1 97
2019-02-09 04:00:00 3 0 Calma -- -- 0 945.6 -1.3 94
2019-02-09 03:00:00 4.3 0 Calma -- -- 0 946.5 -0.6 92
2019-02-09 02:00:00 5 0 Calma -- -- 0 946.5 -0.6 89
2019-02-09 01:00:00 5.3 0 Calma 0 Calma 0 946.9 -0.5 84
2019-02-09 00:00:00 7 0 Calma 3 Nordeste 0 947.1 0.2 79
2019-02-08 23:00:00 8.1 0 Calma 5 Sudeste 0 947.1 0.4 73
2019-02-08 22:00:00 9.3 0 Calma 0 Calma 0 947.4 0.4 65
2019-02-08 21:00:00 10.2 0 Calma 10 Sudeste 0 946.9 -0.6 60
2019-02-08 20:00:00 13 3 Sur 10 Sur 0 946.7 -0.9 47
2019-02-08 19:00:00 14.1 0 Calma 8 Noroeste 0 947 -0.6 42
2019-02-08 18:00:00 18.3 0 Calma 16 Sudoeste 0 947.5 -0.3 35
2019-02-08 17:00:00 19.2 3 Sudoeste 20 Oeste 0 947.6 -0.8 33
2019-02-08 16:00:00 18.9 3 Sudoeste 19 Sudoeste 0 947.6 -0.8 34
2019-02-08 15:00:00 18.7 4 Oeste 18 Oeste 0 947.8 -0.3 36
2019-02-08 14:00:00 16.7 4 Oeste 13 Oeste 0 948.4 0.8 43
2019-02-08 13:00:00 15.1 0 Calma 5 Sudoeste 0 948.4 1.3 50
2019-02-08 12:00:00 12.1 0 Calma 4 Norte 0 948.1 2 60
2019-02-08 11:00:00 9.7 0 Calma 3 Este 0 947.6 1.9 75
2019-02-08 10:00:00 5.4 0 Calma -- -- 0 947.1 1.7 98
2019-02-08 09:00:00 2.5 0 Calma 4 Nordeste 0 946.1 0.8 99
2019-02-08 08:00:00 2.1 0 Calma 5 Nordeste 0 945.7 -0.2 99
2019-02-08 07:00:00 2.5 0 Calma -- -- 0 945.4 -0.8 99
2019-02-08 06:00:00 2.8 2 Nordeste 10 Nordeste 0 945.3 -1.5 99
2019-02-08 05:00:00 3.4 0 Calma -- -- 0 945.9 -1.3 98
2019-02-08 04:00:00 3.9 0 Calma 8 Nordeste 0 946.2 -1.1 96
2019-02-08 03:00:00 4.6 0 Calma -- -- 0 946.8 -0.3 95
2019-02-08 02:00:00 5.1 0 Calma 0 Calma 0 947.2 -0.2 94
2019-02-08 01:00:00 5.6 0 Calma 5 Nordeste 0 947.3 -0.4 89
2019-02-08 00:00:00 6.6 0 Calma 9 Nordeste 0 947.1 -0.5 85
2019-02-07 23:00:00 7.4 0 Calma 4 Norte 0 947.4 -0.5 76
2019-02-07 22:00:00 9.6 0 Calma 4 Nordeste 0 947.7 0 67
2019-02-07 21:00:00 10 0 Calma 9 Sur 0 947.6 -0.3 64
2019-02-07 20:00:00 12.7 0 Calma 6 Sudeste 0 947.9 -0.3 53
2019-02-07 19:00:00 14.1 0 Calma 10 Sur 0 947.7 -0.3 46
2019-02-07 18:00:00 17.6 0 Calma 12 Sudoeste 0 947.9 -0.3 39
2019-02-07 17:00:00 18.4 0 Calma 13 Oeste 0 948.2 -0.4 38
2019-02-07 16:00:00 18.7 0 Calma 11 Oeste 0 948 -1.1 37
2019-02-07 15:00:00 17.5 0 Calma 17 Oeste 0 948.2 -0.9 40
2019-02-07 14:00:00 16.7 0 Calma 9 Noroeste 0 948.6 0.2 45
2019-02-07 13:00:00 14.6 0 Calma 5 Oeste 0 949.1 1.8 52
2019-02-07 12:00:00 11.8 0 Calma 7 Norte 0 949.1 2.4 59
2019-02-07 11:00:00 8.6 0 Calma 6 Norte 0 948.4 1.9 72
2019-02-07 10:00:00 5.2 0 Calma 0 Calma 0 947.3 1.3 94
2019-02-07 09:00:00 2.8 0 Calma 5 Nordeste 0 946.7 0.4 97
2019-02-07 08:00:00 2.5 0 Calma 0 Calma 0 946.5 -0.3 96
2019-02-07 07:00:00 3.1 0 Calma -- -- 0 946 -0.8 94
2019-02-07 06:00:00 3.4 0 Calma 9 Nordeste 0 946.3 -1.3 93
2019-02-07 05:00:00 4 0 Calma 2 Norte 0 946.8 -0.6 91
2019-02-07 04:00:00 4.7 0 Calma -- -- 0 946.8 -0.9 87
2019-02-07 03:00:00 4.8 0 Calma -- -- 0 947.6 -0.2 83
2019-02-07 02:00:00 5.6 0 Calma 0 Calma 0 947.4 -1 78
2019-02-07 01:00:00 6.1 0 Calma 3 Sur 0 947.7 -1.2 74
2019-02-07 00:00:00 7.3 0 Calma -- -- 0 947.8 -0.9 66
2019-02-06 23:00:00 9 0 Calma -- -- 0 948.4 -0.5 60
2019-02-06 22:00:00 10 0 Calma -- -- 0 948.9 -0.1 55
2019-02-06 21:00:00 11 0 Calma 13 Sudeste 0 948.7 -0.2 49
2019-02-06 20:00:00 13.9 4 Sur 14 Sudeste 0 948.9 -0.4 41
2019-02-06 19:00:00 14.8 6 Sur 15 Sudoeste 0 949 -0.5 39
2019-02-06 18:00:00 18.4 0 Calma 15 Oeste 0 948.9 -0.9 34
2019-02-06 17:00:00 19.5 6 Sudoeste 20 Sudoeste 0 949.3 -1 35
2019-02-06 16:00:00 19.4 5 Sudoeste 16 Sudoeste 0 949.5 -1.3 37
2019-02-06 15:00:00 19 0 Calma 12 Sudoeste 0 949.8 -1.2 37
2019-02-06 14:00:00 17.7 0 Calma 4 Oeste 0 950.3 -0.1 40
2019-02-06 13:00:00 15.8 0 Calma 3 Noroeste 0 950.8 1.2 46
2019-02-06 12:00:00 12.5 0 Calma 3 Norte 0 951 2.2 58
2019-02-06 11:00:00 9 0 Calma 3 Este 0 950.4 -- 71
2019-02-06 10:00:00 6.3 0 Calma -- -- 0 949.6 0.7 91
2019-02-06 09:00:00 2.6 0 Calma -- -- -- 948.8 0.1 98
2019-02-06 08:00:00 -- -- -- -- -- -- -- -- --
2019-02-06 07:00:00 2.5 0 Calma 0 Calma 0 948.9 0.3 97
2019-02-06 06:00:00 3.3 0 Calma 2 Este 0 948.7 -0.6 97
2019-02-06 05:00:00 3.1 0 Calma -- -- 0 948.6 -1.3 96
2019-02-06 04:00:00 3.5 0 Calma 13 Nordeste 0 948.6 -1.5 93
2019-02-06 03:00:00 4 0 Calma 13 Nordeste 0 949.3 -1.2 92
2019-02-06 02:00:00 4.9 0 Calma 16 Nordeste 0 949.9 -0.8 88
2019-02-06 01:00:00 5.7 0 Calma 15 Nordeste 0 950.1 -1.5 87
2019-02-06 00:00:00 5.7 0 Calma 13 Nordeste 0 950.5 -1 83
2019-02-05 23:00:00 6.5 0 Calma 7 Nordeste 0 950.7 -1.1 80
2019-02-05 22:00:00 7.6 0 Calma 9 Nordeste 0 951.6 -0.2 74
2019-02-05 21:00:00 8.3 0 Calma 6 Nordeste 0 951.5 -0.3 70
2019-02-05 20:00:00 9.8 0 Calma 9 Nordeste 0 951.8 0.2 60
2019-02-05 19:00:00 11.8 0 Calma 9 Norte 0 951.8 0.2 53
2019-02-05 18:00:00 13.7 0 Calma 13 Este 0 951.8 -0.1 47
2019-02-05 17:00:00 16.2 0 Calma 9 Norte 0 951.6 -0.6 43
2019-02-05 16:00:00 17.6 0 Calma 12 Norte 0 951.6 -1.1 39
2019-02-05 15:00:00 17.4 0 Calma 12 Norte 0 951.9 -1.2 39
2019-02-05 14:00:00 17.2 0 Calma 11 Norte 0 952.2 -0.9 39
2019-02-05 13:00:00 16.2 0 Calma 12 Este 0 952.7 -0.2 40
2019-02-05 12:00:00 14.8 0 Calma 12 Nordeste 0 953.1 1.7 39
2019-02-05 11:00:00 12.5 0 Calma 12 Nordeste 0 953.1 2.7 41
2019-02-05 10:00:00 8.6 0 Calma 14 Nordeste 0 952.9 2.9 55
2019-02-05 09:00:00 5.2 3 Nordeste 15 Nordeste 0 951.4 1.7 66
2019-02-05 08:00:00 2.2 0 Calma 0 Calma 0 950.4 0.4 87
2019-02-05 07:00:00 0.2 0 Calma 5 Nordeste 0 950 0.4 88
2019-02-05 06:00:00 0.6 0 Calma 7 Nordeste 0 949.7 -0.1 87
2019-02-05 05:00:00 0.8 0 Calma 15 Nordeste 0 950 -0.5 85
2019-02-05 04:00:00 1.9 4 Nordeste 14 Nordeste 0 949.6 -0.9 82
2019-02-05 03:00:00 1.7 0 Calma 14 Nordeste 0 949.8 -1 79
2019-02-05 02:00:00 3 8 Nordeste 16 Nordeste 0 950.5 -0.6 76
2019-02-05 01:00:00 3.4 10 Nordeste 15 Nordeste 0 950.5 -0.7 73
2019-02-05 00:00:00 3.1 3 Nordeste 9 Nordeste 0 950.8 -0.3 75
2019-02-04 23:00:00 3.2 0 Calma -- -- 0 951.1 -0.2 71
2019-02-04 22:00:00 4.5 0 Calma -- -- 0 951.2 -0.3 65
2019-02-04 21:00:00 5.6 0 Calma -- -- 0 951.1 -0.4 60
2019-02-04 20:00:00 6.5 0 Calma 6 Este 0 951.3 -0.3 55
2019-02-04 19:00:00 8.1 0 Calma 7 Nordeste 0 951.5 -0.1 50
2019-02-04 18:00:00 8.9 0 Calma 0 Calma 0 951.5 -0.1 46
2019-02-04 17:00:00 14.9 0 Calma 5 Nordeste 0 951.6 0.2 30
2019-02-04 16:00:00 14.5 0 Calma 10 Este 0 951.6 0.1 30
2019-02-04 15:00:00 14.1 0 Calma 18 Norte 0 951.6 -0.2 31
2019-02-04 14:00:00 13.5 3 Norte 17 Noroeste 0 951.4 -0.8 31
2019-02-04 13:00:00 12.2 0 Calma 14 Nordeste 0 951.5 -0.6 34
2019-02-04 12:00:00 10.1 0 Calma 13 Nordeste 0 951.8 0.6 41
2019-02-04 11:00:00 7.7 0 Calma 10 Norte 0 952.2 1.6 48
2019-02-04 10:00:00 5.6 0 Calma 13 Nordeste 0 952.1 2.2 59
2019-02-04 09:00:00 1.3 0 Calma 7 Nordeste 0 951.2 1.4 80
2019-02-04 08:00:00 -0.6 0 Calma 10 Nordeste 0 950.6 0.9 92
2019-02-04 07:00:00 -1.5 6 Nordeste 13 Nordeste 0 949.9 -0.2 94
2019-02-04 06:00:00 -2.3 0 Calma -- -- 0 949.8 -1.1 93
2019-02-04 05:00:00 -1.6 0 Calma 8 Este 0 949.7 -1.2 93
2019-02-04 04:00:00 -1.8 0 Calma 7 Nordeste 0 950.1 -0.3 92
2019-02-04 03:00:00 -1.3 0 Calma -- -- 0 950.9 0.4 90
2019-02-04 02:00:00 -0.9 0 Calma -- -- 0 950.9 0.5 84
2019-02-04 01:00:00 -0.4 0 Calma -- -- 0 950.4 0.4 83
2019-02-04 00:00:00 0.1 0 Calma -- -- 0 950.5 1.1 77
2019-02-03 23:00:00 1 0 Calma 6 Nordeste 0 950.4 1 75
2019-02-03 22:00:00 1.4 0 Calma 3 Sudoeste 0 950 1 68
2019-02-03 21:00:00 2.1 0 Calma 3 Este 0 949.4 1.1 63
2019-02-03 20:00:00 3.6 0 Calma 6 Este 0 949.4 1 55
2019-02-03 19:00:00 4.1 0 Calma 3 Sudeste 0 949 0.6 51
2019-02-03 18:00:00 5.4 0 Calma 15 Norte 0 948.3 -0.4 45
2019-02-03 17:00:00 7.8 6 Norte 27 Nordeste 0 948.4 0.1 40
2019-02-03 16:00:00 8.8 13 Norte 36 Norte 0 948.4 0.3 38
2019-02-03 15:00:00 8.5 14 Norte 32 Norte 0 948.7 0.7 38
2019-02-03 14:00:00 8.6 18 Norte 36 Norte 0 948.3 0.1 39
2019-02-03 13:00:00 8.5 18 Nordeste 34 Norte 0 948.1 0.1 38
2019-02-03 12:00:00 7.4 12 Norte 27 Norte 0 948 0.5 43
2019-02-03 11:00:00 6.7 5 Norte 21 Norte 0 948.2 1.5 48
2019-02-03 10:00:00 5.3 2 Nordeste 9 Nordeste 0 948 2.6 57
2019-02-03 09:00:00 3.1 0 Calma -- -- 0 947.5 3.1 79
2019-02-03 08:00:00 0.1 0 Calma -- -- 0 946.7 2.5 91
2019-02-03 07:00:00 -1.2 0 Calma 0 Calma 0 945.4 1.5 90
2019-02-03 06:00:00 0.5 0 Calma 8 Sudeste 0 944.4 1.4 79
2019-02-03 05:00:00 0.5 0 Calma 5 Sudeste 0 944.2 1.1 79
2019-02-03 04:00:00 0.7 0 Calma 5 Sur 0 943.9 1.6 76
2019-02-03 03:00:00 0.4 0 Calma -- -- 0 943 0.3 85
2019-02-03 02:00:00 0.5 0 Calma 3 Sur 0 943.1 1.2 83
2019-02-03 01:00:00 0.9 0 Calma 6 Sur 0 942.3 0.9 78
2019-02-03 00:00:00 2.4 0 Calma 2 Sudeste 0 942.7 1.4 70
2019-02-02 23:00:00 3 0 Calma 0 Calma 0 941.9 -- 73
2019-02-02 22:00:00 2.7 0 Calma -- -- 0 941.4 1.5 73
2019-02-02 21:00:00 3.6 0 Calma 0 Calma 0 941.3 2.6 67
2019-02-02 20:00:00 -- -- -- -- -- -- -- -- --
2019-02-02 19:00:00 6 0 Calma 12 Noroeste 0 939.9 2.4 47
2019-02-02 18:00:00 7.2 3 Noroeste 17 Noroeste 0 938.7 1.8 44
2019-02-02 17:00:00 7.6 4 Norte 24 Norte 0 938.4 2.3 46
2019-02-02 16:00:00 8.8 6 Norte 32 Norte 0 937.5 2 44
2019-02-02 15:00:00 8.6 13 Noroeste 33 Noroeste 0 936.9 1.6 43
2019-02-02 14:00:00 8.6 10 Noroeste 23 Noroeste 0 936.1 1.1 45
2019-02-02 13:00:00 7.4 3 Noroeste 23 Norte 0 935.5 1.6 50
2019-02-02 12:00:00 6.9 6 Oeste 20 Oeste 0 935.3 2.3 62
2019-02-02 11:00:00 6.7 7 Oeste 16 Sudoeste 0 935 3.3 64
2019-02-02 10:00:00 6 6 Oeste 28 Oeste 0 933.9 3.7 74
2019-02-02 09:00:00 5.4 8 Oeste 23 Oeste 0 933 3.6 78
2019-02-02 08:00:00 4.9 5 Sudoeste 21 Sudoeste 0 931.7 3 82
2019-02-02 07:00:00 4.9 9 Sudoeste 23 Oeste 0 930.2 1.6 90
2019-02-02 06:00:00 4.6 12 Sudoeste 24 Sudoeste 0 929.4 1.1 94
2019-02-02 05:00:00 4.9 13 Sudoeste 26 Sudoeste 0 928.7 0.2 92
2019-02-02 04:00:00 4.7 15 Sudoeste 30 Sudoeste 0 928.6 0.7 90
2019-02-02 03:00:00 5.3 15 Sudoeste 34 Oeste 0 928.3 1.2 83
2019-02-02 02:00:00 5.4 10 Sudoeste 32 Oeste 0.1 928.5 2.3 79
2019-02-02 01:00:00 5.8 12 Sudoeste 33 Sudoeste 0 927.9 1.9 81
2019-02-02 00:00:00 5.8 22 Sudoeste 43 Sudoeste 0 927.1 2.1 80
2019-02-01 23:00:00 5.9 18 Sudoeste 37 Sudoeste 0 926.2 1 85
2019-02-01 22:00:00 6.1 21 Sudoeste 47 Sudoeste 0 926 1.1 80
2019-02-01 21:00:00 6.3 21 Sudoeste 41 Sudoeste 0 925 1.7 88
2019-02-01 20:00:00 6.2 21 Sudoeste 40 Sudoeste 0 925.2 3.1 91
2019-02-01 19:00:00 6.1 18 Sudoeste 35 Sudoeste 0.1 924.9 2.4 93
2019-02-01 18:00:00 6.4 25 Sudoeste 62 Oeste 1.8 923.3 -0.1 91
2019-02-01 17:00:00 9.5 27 Sudoeste 50 Sudoeste 0 922.1 -1.3 67
2019-02-01 16:00:00 9.2 23 Sudoeste 48 Sudoeste 0 922.5 -1.8 75
2019-02-01 15:00:00 10.3 28 Sudoeste 42 Sudoeste 0.1 923.4 -1.1 70
2019-02-01 14:00:00 9.9 26 Sudoeste 45 Sudoeste 0 923.4 -1.5 64
2019-02-01 13:00:00 9.8 22 Sudoeste -- -- -- 924.3 -0.8 74
2019-02-01 12:00:00 9.7 22 Sudoeste 38 Sudoeste 0 924.5 0.6 79
2019-02-01 11:00:00 8.7 21 Sudoeste 37 Sudoeste 0 924.9 1.1 81
2019-02-01 10:00:00 8.5 20 Sudoeste 33 Sudoeste 0 925.1 2.7 96
2019-02-01 09:00:00 8.6 0 Calma 21 Noroeste 1.6 923.9 0.8 99
2019-02-01 08:00:00 9.3 18 Oeste 46 Sudoeste 3.2 923.8 1.2 99
2019-02-01 07:00:00 10.2 22 Sudoeste 32 Sudoeste 4.3 922.4 -1.2 99
2019-02-01 06:00:00 10.6 24 Oeste 52 Sudoeste 5.4 923.1 -1.7 99
2019-02-01 05:00:00 10.9 27 Sudoeste 60 Sudoeste 3.5 922.6 -4.1 97
2019-02-01 04:00:00 10.4 26 Sudoeste 44 Sudoeste 2 923.6 -3 99
2019-02-01 03:00:00 10 19 Sudoeste 52 Sudoeste 2.2 924.8 -3.6 99
2019-02-01 02:00:00 10.8 32 Sudoeste 58 Sudoeste 0.8 926.7 -2.4 97
2019-02-01 01:00:00 10.8 27 Sudoeste 46 Sudoeste 0 926.6 -3.2 90
2019-02-01 00:00:00 11 25 Sudoeste 42 Sudoeste 0.1 928.4 -2 88
2019-01-31 23:00:00 10.5 28 Sudoeste 53 Sudoeste 0.1 929.1 -1.4 97
2019-01-31 22:00:00 10.5 28 Sudoeste 49 Sudoeste 0 929.8 -1 98
2019-01-31 21:00:00 10.5 26 Sudoeste 49 Sudoeste 0.3 930.4 -0.9 99
2019-01-31 20:00:00 9.8 23 Sudoeste 38 Sudoeste 0.3 930.5 -1.4 97
2019-01-31 19:00:00 10.8 21 Sudoeste 39 Sudoeste 0 930.8 -1.3 85
2019-01-31 18:00:00 10.7 24 Sudoeste 41 Sudoeste 0.3 931.3 -0.7 94
2019-01-31 17:00:00 10.5 18 Sudoeste 38 Sudoeste 0.1 931.9 -0.3 99
2019-01-31 16:00:00 10.7 23 Sudoeste 44 Sudoeste 0 932.1 -0.3 98
2019-01-31 15:00:00 10.8 24 Sudoeste 44 Sudoeste 0.3 932 -1.2 99
2019-01-31 14:00:00 11 22 Sudoeste 43 Sudoeste 0.3 932.2 -1.5 99
2019-01-31 13:00:00 10.9 23 Sudoeste 40 Sudoeste 0.2 932.4 -1.4 99
2019-01-31 12:00:00 11 24 Sudoeste 44 Sudoeste 0 933.2 0.5 99
2019-01-31 11:00:00 10.8 22 Sudoeste 53 Sudoeste 0.7 933.7 1.1 99
2019-01-31 10:00:00 10.4 23 Sudoeste 45 Sudoeste 0.5 933.8 1.4 99
2019-01-31 09:00:00 10.2 27 Sudoeste 42 Sudoeste 1 932.7 0.2 99
2019-01-31 08:00:00 9.8 22 Sudoeste 39 Sudoeste 0.6 932.6 0.1 99
2019-01-31 07:00:00 9.7 19 Sudoeste 34 Sudoeste 0.5 932.4 -0.6 99
2019-01-31 06:00:00 9.5 18 Sudoeste 34 Sudoeste 0.1 932.5 -1 99
2019-01-31 05:00:00 9.4 19 Sudoeste 36 Sudoeste 0.2 932.5 -1.5 99
2019-01-31 04:00:00 9.3 21 Sudoeste 38 Sudoeste 0.1 933 -1.5 99
2019-01-31 03:00:00 9 21 Sudoeste 36 Sudoeste 0.7 933.5 -1.5 99
2019-01-31 02:00:00 8.8 18 Sudoeste 37 Sudoeste 1.4 934 -1.1 99
2019-01-31 01:00:00 8.5 20 Sudoeste 43 Sudoeste 0.8 934.5 -0.8 99
2019-01-31 00:00:00 8.3 19 Sudoeste 35 Sudoeste 0.9 935 -0.8 99
2019-01-30 23:00:00 7.9 20 Sudoeste 33 Sudoeste 0.8 935.1 -1.4 99
2019-01-30 22:00:00 7.9 17 Sudoeste 35 Sudoeste 0 935.3 -1.5 99
2019-01-30 21:00:00 7.7 14 Sudoeste 29 Sudoeste 0.7 935.8 -1 99
2019-01-30 20:00:00 8.2 10 Sudoeste 40 Sudoeste 0.2 936.5 -0.4 89
2019-01-30 19:00:00 9.3 14 Sudoeste 30 Sudoeste 0 936.8 -0.7 65
2019-01-30 18:00:00 9.6 15 Sudoeste 37 Sudoeste 0 936.8 -0.7 58
2019-01-30 17:00:00 9.9 20 Sudoeste 37 Oeste 0 936.9 -0.7 57
2019-01-30 16:00:00 10.9 22 Sudoeste 35 Sudoeste 0 937.5 -0.9 53
2019-01-30 15:00:00 10.9 19 Sudoeste 34 Sudoeste 0 937.5 -1.5 54
2019-01-30 14:00:00 10.7 19 Sudoeste 33 Sudoeste 0 937.6 -2 57
2019-01-30 13:00:00 10.5 18 Sudoeste 30 Sudoeste 0 938.4 -0.5 58
2019-01-30 12:00:00 10.8 14 Sudoeste 29 Sudoeste 0 939 0.4 58
2019-01-30 11:00:00 9 21 Sudoeste 29 Oeste 0 939.6 2.1 67
2019-01-30 10:00:00 8.3 15 Sudoeste 28 Sudoeste 0 938.9 1.8 82
2019-01-30 09:00:00 7.8 16 Sudoeste 32 Sudoeste 0 938.6 1.8 86
2019-01-30 08:00:00 7.8 16 Sudoeste 27 Sudoeste 0 937.5 0.5 94
2019-01-30 07:00:00 7.8 17 Sudoeste 28 Sudoeste 0 937.1 -0.9 94
2019-01-30 06:00:00 8 17 Sudoeste 26 Sudoeste 0 936.8 -1.2 96
2019-01-30 05:00:00 8 16 Sudoeste 27 Sudoeste 0 937 -1.1 96
2019-01-30 04:00:00 8.4 15 Sudoeste 27 Sudoeste 0 938 -0.6 94
2019-01-30 03:00:00 8.6 15 Sudoeste 25 Sudoeste 0 938 -1.1 92
2019-01-30 02:00:00 8.8 17 Sudoeste 30 Sudoeste 0 938.1 -1.2 91
2019-01-30 01:00:00 8.7 17 Sudoeste 27 Sudoeste 0 938.6 -1.3 93
2019-01-30 00:00:00 8.4 11 Sudoeste 24 Sudoeste 0.2 939.1 -0.8 96
2019-01-29 23:00:00 8.7 15 Sudoeste 30 Sudoeste 0.2 939.3 -0.3 92
2019-01-29 22:00:00 9.2 20 Sudoeste 36 Sudoeste 0 939.9 0.3 87
2019-01-29 21:00:00 9.9 23 Sudoeste 37 Sudoeste 0 939.9 0.6 81
2019-01-29 20:00:00 9.8 24 Sudoeste 39 Sudoeste 0 939.6 -0.1 82
2019-01-29 19:00:00 9.4 20 Sudoeste 39 Sudoeste 0 939.6 0 82
2019-01-29 18:00:00 9.3 25 Sudoeste 43 Sudoeste 0 939.3 -0.7 79
2019-01-29 17:00:00 9.2 16 Sudoeste 35 Sudoeste 0 939.7 -0.5 79
2019-01-29 16:00:00 9.1 25 Sudoeste 43 Sudoeste 0 939.6 -1.1 78
2019-01-29 15:00:00 9.1 21 Sudoeste 39 Sudoeste 0 940 -1.5 77
2019-01-29 14:00:00 9 26 Sudoeste 42 Sudoeste 0 940.2 -2 77
2019-01-29 13:00:00 8.8 23 Sudoeste 42 Sudoeste 0 940.7 -1.5 77
2019-01-29 12:00:00 7.7 23 Sudoeste 41 Sudoeste 0 941.5 -0.4 85
2019-01-29 11:00:00 7.5 19 Sudoeste 37 Sudoeste 0 942.2 0.4 90
2019-01-29 10:00:00 7.7 20 Sudoeste 34 Sudoeste 0 942.2 0.6 89
2019-01-29 09:00:00 7.2 20 Sudoeste 32 Sudoeste 0 941.9 0.4 97
2019-01-29 08:00:00 7 14 Sudoeste 25 Sudoeste 0 941.8 -0.3 98
2019-01-29 07:00:00 7 15 Sudoeste 26 Sudoeste 0 941.6 -0.7 98
2019-01-29 06:00:00 7.1 11 Sudoeste 19 Sudoeste 0 941.5 -1 97
2019-01-29 05:00:00 7.1 5 Sudoeste 16 Sudoeste 0 942.1 -0.4 96
2019-01-29 04:00:00 7.2 7 Sudoeste 19 Sudoeste 0 942.3 -0.1 94
2019-01-29 03:00:00 7.3 9 Sudoeste 13 Sudoeste 0 942.5 -0.4 94
2019-01-29 02:00:00 7 3 Sudoeste 10 Sudoeste 0 942.5 -0.6 91
2019-01-29 01:00:00 8.1 7 Sudoeste 12 Sudoeste 0 942.4 -0.6 86
2019-01-29 00:00:00 8.2 2 Sudoeste 13 Sudoeste 0 942.9 -0.3 84
2019-01-28 23:00:00 8.8 3 Sur 11 Sudoeste 0 943.1 0.3 78
2019-01-28 22:00:00 9.5 4 Sudoeste 18 Sudoeste 0 943 0.1 72
2019-01-28 21:00:00 10 9 Sudoeste 24 Sudoeste 0 943.2 0.4 68
2019-01-28 20:00:00 10.3 16 Sudoeste 27 Sudoeste 0 942.8 0.5 65
2019-01-28 19:00:00 10.1 13 Sudoeste 27 Sudoeste 0 942.9 0.5 65
2019-01-28 18:00:00 9.4 5 Sudoeste 20 Sudoeste 0 942.8 0.3 65
2019-01-28 17:00:00 9.2 7 Sudoeste 34 Sudoeste 0 942.3 -0.3 63
2019-01-28 16:00:00 9.6 19 Sudoeste 34 Sudoeste 0 942.4 -0.8 57
2019-01-28 15:00:00 9.5 22 Sudoeste 40 Oeste 0 942.5 -1.1 53
2019-01-28 14:00:00 10.3 14 Sudoeste 33 Sudoeste 0 942.6 -1.4 54
2019-01-28 13:00:00 9.6 17 Sudoeste 30 Sudoeste 0 943.2 0.5 56
2019-01-28 12:00:00 8.6 18 Oeste 33 Sudoeste 0 943.6 0.9 58
2019-01-28 11:00:00 7.9 14 Oeste 23 Oeste 0 944 1.4 63
2019-01-28 10:00:00 5.7 6 Sudoeste 14 Sudoeste 0 942.7 -0.1 85
2019-01-28 09:00:00 2.4 0 Calma -- -- 0 942.7 0.7 99
2019-01-28 08:00:00 0.4 0 Calma -- -- 0 942.6 1.3 99
2019-01-28 07:00:00 0.4 0 Calma -- -- 0 942.8 1 99
2019-01-28 06:00:00 0.9 0 Calma -- -- 0 942 0.7 99
2019-01-28 05:00:00 0.9 0 Calma 12 Sudoeste 0 941.3 -0.6 99
2019-01-28 04:00:00 1.6 3 Nordeste 7 Nordeste 0 941.8 -0.1 99
2019-01-28 03:00:00 2.5 0 Calma -- -- 0 941.3 -0.3 99
2019-01-28 02:00:00 2.8 0 Calma -- -- 0 941.9 -0.4 98
2019-01-28 01:00:00 3.2 0 Calma 7 Nordeste 0 941.9 -0.1 97
2019-01-28 00:00:00 3.7 0 Calma 7 Nordeste 0 941.6 -0.5 94
2019-01-27 23:00:00 4.6 0 Calma -- -- 0 942.3 0.1 91
2019-01-27 22:00:00 5.6 0 Calma 8 Sur 0 942 0.4 85
2019-01-27 21:00:00 6.8 0 Calma 7 Sur 0 942.1 0.8 76
2019-01-27 20:00:00 8.4 3 Sur 10 Nordeste 0 942.2 0.6 72
2019-01-27 19:00:00 8.8 6 Sur 13 Sur 0 941.6 0.5 70
2019-01-27 18:00:00 9.4 8 Sur 17 Sudoeste 0 941.3 0.8 67
2019-01-27 17:00:00 10.8 11 Sudoeste 29 Sudoeste 0 941.6 1.4 65
2019-01-27 16:00:00 11 13 Sudoeste 25 Sudoeste 0 941.1 1.2 65
2019-01-27 15:00:00 10.9 14 Sudoeste 26 Sudoeste 0 940.5 -0.3 67
2019-01-27 14:00:00 9.9 16 Sudoeste 30 Sudoeste 0 940.2 -0.8 73
2019-01-27 13:00:00 10.1 18 Sudoeste 30 Sudoeste 0 939.9 -0.9 73
2019-01-27 12:00:00 9 21 Sudoeste 34 Sudoeste 0 940.8 0.6 79
2019-01-27 11:00:00 8.5 16 Sudoeste 33 Sudoeste 0 941 1.2 90
2019-01-27 10:00:00 9.1 19 Sudoeste 31 Sudoeste 0 940.8 1.5 91
2019-01-27 09:00:00 8 10 Sudoeste 26 Sudoeste 0 940.2 0.4 99
2019-01-27 08:00:00 6.6 7 Sur 18 Sudoeste 0 939.8 0.1 99
2019-01-27 07:00:00 7.4 13 Sudoeste 26 Sudoeste 0 939.3 -0.2 99
2019-01-27 06:00:00 6.7 12 Sudoeste 25 Sudoeste 0 939.8 0.1 99
2019-01-27 05:00:00 4.6 7 Sudoeste 10 Sudoeste 0 939.7 -0.8 95
2019-01-27 04:00:00 4.2 0 Calma 3 Nordeste 0 939.5 -1.3 98
2019-01-27 03:00:00 3 3 Nordeste 8 Norte 0 939.7 -1.7 97
2019-01-27 02:00:00 4.1 0 Calma 4 Sudeste 0 940.5 -1 94
2019-01-27 01:00:00 4.2 0 Calma -- -- 0 940.8 -1.6 90
2019-01-27 00:00:00 5 0 Calma 2 Nordeste 0 941.4 -1 86
2019-01-26 23:00:00 6.2 0 Calma 4 Norte 0 941.5 -1.6 83
2019-01-26 22:00:00 6.9 0 Calma 3 Nordeste 0 942.4 -0.9 76
2019-01-26 21:00:00 7.9 0 Calma -- -- 0 942.4 -0.7 70
2019-01-26 20:00:00 9.4 0 Calma 3 Nordeste 0 943.1 -0.4 61
2019-01-26 19:00:00 12 3 Sur 12 Sur 0 943.3 -0.8 47
2019-01-26 18:00:00 12.6 3 Sur 10 Sudoeste 0 943.1 -1.6 49
2019-01-26 17:00:00 16.2 2 Sur 10 Sudoeste 0 943.5 -1.2 39
2019-01-26 16:00:00 17.7 4 Sudoeste 15 Sudoeste 0 944.1 -0.8 36
2019-01-26 15:00:00 17.2 6 Oeste 15 Sudoeste 0 944.7 -0.5 38
2019-01-26 14:00:00 16.6 3 Oeste 11 Oeste 0 944.7 -0.8 41
2019-01-26 13:00:00 15.1 0 Calma 8 Oeste 0 944.9 0.3 46
2019-01-26 12:00:00 13.2 0 Calma 5 Oeste 0 945.2 2.1 52
2019-01-26 11:00:00 10.2 0 Calma 4 Norte 0 945.5 2.6 64
2019-01-26 10:00:00 7.8 0 Calma 9 Nordeste 0 944.6 2.5 76
2019-01-26 09:00:00 4.7 4 Nordeste 9 Nordeste 0 943.1 0.4 91
2019-01-26 08:00:00 1.9 0 Calma 9 Nordeste 0 942.9 0.6 98
2019-01-26 07:00:00 2.3 0 Calma 11 Nordeste 0 942.1 -0.1 96
2019-01-26 06:00:00 3.3 0 Calma 18 Nordeste 0 942.7 0.1 97
2019-01-26 05:00:00 2.7 3 Nordeste 19 Nordeste 0 942.3 -0.9 95
2019-01-26 04:00:00 4.1 5 Nordeste 14 Nordeste 0 942.2 -1 96
2019-01-26 03:00:00 3.9 0 Calma -- -- 0 942.6 -1 94
2019-01-26 02:00:00 3.7 0 Calma -- -- 0 943.2 -0.9 93
2019-01-26 01:00:00 6 4 Nordeste 13 Nordeste 0 943.2 -0.4 86
2019-01-26 00:00:00 6.1 0 Calma 9 Nordeste 0 943.6 0 82
2019-01-25 23:00:00 7.7 0 Calma 15 Nordeste 0 944.1 0.2 75
2019-01-25 22:00:00 7.4 0 Calma 8 Nordeste 0 943.6 -0.1 76
2019-01-25 21:00:00 8.3 0 Calma 8 Nordeste 0 943.6 0.3 72
2019-01-25 20:00:00 9 0 Calma 9 Este 0 943.9 0.8 64
2019-01-25 19:00:00 12 4 Nordeste 9 Nordeste 0 943.7 0.7 55
2019-01-25 18:00:00 11.9 0 Calma 9 Norte 0 943.3 0.3 54
2019-01-25 17:00:00 15.1 3 Norte 18 Norte 0 943.1 -0.1 45
2019-01-25 16:00:00 16.1 9 Norte 19 Norte 0 943 -0.3 43
2019-01-25 15:00:00 16.1 5 Norte 24 Norte 0 943 -0.9 43
2019-01-25 14:00:00 15.6 9 Norte 23 Norte 0 943.2 -0.9 43
2019-01-25 13:00:00 15.3 9 Nordeste 21 Nordeste 0 943.3 0.2 46
2019-01-25 12:00:00 13.5 4 Nordeste 12 Nordeste 0 943.9 1.5 54
2019-01-25 11:00:00 12.3 3 Norte 11 Norte 0 944.1 2.6 59
2019-01-25 10:00:00 10 0 Calma 10 Norte 0 943.1 2.4 85
2019-01-25 09:00:00 7.1 0 Calma 6 Este 0 942.4 2 99
2019-01-25 08:00:00 5 0 Calma 9 Oeste 0 941.5 1.4 99
2019-01-25 07:00:00 5.1 0 Calma 10 Nordeste 0 940.7 0.8 99
2019-01-25 06:00:00 5.9 2 Sur 14 Norte 0 940.4 0.3 99
2019-01-25 05:00:00 6.7 0 Calma -- -- 0 940.1 -0.6 99
2019-01-25 04:00:00 7.1 0 Calma 4 Nordeste 0 939.9 -0.5 99
2019-01-25 03:00:00 7.1 0 Calma 9 Nordeste 0 940.1 0.2 97
2019-01-25 02:00:00 8.6 0 Calma -- -- 0 940.7 0.6 96
2019-01-25 01:00:00 8.7 0 Calma 8 Nordeste 0 940.4 0.6 97
2019-01-25 00:00:00 8.1 3 Sur 10 Sudeste 0 939.9 -0.2 94
2019-01-24 23:00:00 9.1 0 Calma 9 Sur 0 940.1 0.4 91
2019-01-24 22:00:00 10.6 6 Sur 12 Sur 0 939.8 1.3 84
2019-01-24 21:00:00 10.8 6 Sur 13 Sur 0 940.1 1.7 82
2019-01-24 20:00:00 11 7 Sur 14 Sudoeste 0 939.7 1.9 82
2019-01-24 19:00:00 10.8 7 Sur 14 Sudoeste 0 938.5 1.1 79
2019-01-24 18:00:00 10.8 8 Sudoeste 21 Sudoeste 0 938.4 1.1 78
2019-01-24 17:00:00 11.5 11 Sudoeste 27 Sudoeste 0 937.8 1.2 74
2019-01-24 16:00:00 11.9 14 Sudoeste 30 Sudoeste 0 937.4 0.4 70
2019-01-24 15:00:00 12 15 Sudoeste 30 Sudoeste 0 937.3 0.5 69
2019-01-24 14:00:00 12.7 17 Sudoeste 29 Oeste 0 936.6 0 67
2019-01-24 13:00:00 11.8 11 Sudoeste 21 Oeste 0 937 0.6 71
2019-01-24 12:00:00 10.9 11 Oeste 20 Oeste 0 936.8 0.8 76
2019-01-24 11:00:00 10.4 10 Oeste 20 Sudoeste 0 936.6 0.9 81
2019-01-24 10:00:00 8.5 5 Sudoeste 12 Sudoeste 0 936.4 1.3 96
2019-01-24 09:00:00 8.2 4 Sudoeste 13 Sudoeste 0 936 1.8 99
2019-01-24 08:00:00 7.9 5 Oeste 16 Sudoeste 0 935.7 1.5 97
2019-01-24 07:00:00 8 0 Calma 14 Sudoeste 0 935.1 1 97
2019-01-24 06:00:00 8 10 Sudoeste 17 Sudoeste 0 934.2 -0.3 97
2019-01-24 05:00:00 7.7 6 Oeste 15 Sudoeste 0 934.2 -0.5 97
2019-01-24 04:00:00 7.7 7 Sudoeste 23 Sudoeste 0 934.1 -0.9 96
2019-01-24 03:00:00 7.9 12 Sudoeste 22 Sudoeste 0 934.5 -0.2 93
2019-01-24 02:00:00 7.6 10 Sudoeste 19 Sudoeste 0 934.7 -0.1 91
2019-01-24 01:00:00 8 13 Sudoeste 27 Sudoeste 0 935 0.2 89
2019-01-24 00:00:00 8.5 12 Sudoeste 24 Sudoeste 0 934.7 -0.4 85